Time;durP1;ratioP1;P1;durP2;ratioP2;P2;SDS_P1;SDS_P2;PMS_P1;PMS_P2;Temp;Humidity;BMP_temperature;BMP_pressure;BME280_temperature;BME280_humidity;BME280_pressure;Samples;Min_cycle;Max_cycle;Signal;HPM_P1;HPM_P2
2023/04/02 00:01:18;;;;;;;20.25;7.85;;;;;;;6.56;100.00;100877.28;5036386;28;20033;-77
2023/04/02 00:03:43;;;;;;;20.90;8.95;;;;;;;6.58;100.00;100885.19;5038129;28;20492;-77
2023/04/02 00:06:33;;;;;;;20.33;8.15;;;;;;;6.58;100.00;100891.38;5035263;28;20033;-78
2023/04/02 00:09:24;;;;;;;20.25;8.27;;;;;;;6.59;100.00;100893.13;5027820;28;20377;-77
2023/04/02 00:11:54;;;;;;;18.75;8.15;;;;;;;6.54;100.00;100902.31;5040277;28;20178;-77
2023/04/02 00:14:27;;;;;;;17.17;7.20;;;;;;;6.52;100.00;100894.41;5032435;28;20383;-77
2023/04/02 00:16:54;;;;;;;18.45;7.10;;;;;;;6.51;100.00;100906.03;5033788;28;20064;-77
2023/04/02 00:19:44;;;;;;;19.77;7.90;;;;;;;6.53;100.00;100905.94;5039750;28;20358;-77
2023/04/02 00:22:16;;;;;;;21.38;9.38;;;;;;;6.52;100.00;100917.59;5030429;28;20049;-77
2023/04/02 00:24:41;;;;;;;20.60;8.52;;;;;;;6.52;100.00;100914.91;5038059;28;20036;-77
2023/04/02 00:27:11;;;;;;;20.08;8.57;;;;;;;6.48;100.00;100925.72;5037605;28;20036;-77
2023/04/02 00:29:54;;;;;;;22.17;8.80;;;;;;;6.46;100.00;100916.97;5030145;28;20026;-77
2023/04/02 00:32:24;;;;;;;21.00;8.45;;;;;;;6.42;100.00;100926.06;5034918;28;20043;-77
2023/04/02 00:34:49;;;;;;;20.33;8.90;;;;;;;6.38;100.00;100934.34;5037929;28;20033;-77
2023/04/02 00:37:22;;;;;;;20.83;9.10;;;;;;;6.37;100.00;100943.28;5036307;28;20028;-77
2023/04/02 00:39:49;;;;;;;20.25;9.10;;;;;;;6.34;100.00;100943.47;5030755;28;20363;-77
2023/04/02 00:42:16;;;;;;;20.75;8.93;;;;;;;6.32;100.00;100945.34;5033546;28;20091;-78
2023/04/02 00:44:44;;;;;;;20.25;9.07;;;;;;;6.27;100.00;100941.13;5037438;28;20487;-77
2023/04/02 00:47:19;;;;;;;20.52;9.18;;;;;;;6.23;100.00;100952.06;5036393;28;20021;-77
2023/04/02 00:49:45;;;;;;;19.98;8.85;;;;;;;6.22;100.00;100955.66;5038263;28;20120;-77
2023/04/02 00:52:15;;;;;;;20.67;9.65;;;;;;;6.19;100.00;100959.34;5028530;28;20027;-77
2023/04/02 00:54:51;;;;;;;;;;;;;;;6.26;100.00;100971.41;5033830;28;20037;-77
2023/04/02 00:57:24;;;;;;;20.08;8.48;;;;;;;6.18;100.00;100962.09;5038527;28;19999;-77
2023/04/02 01:00:22;;;;;;;20.80;9.85;;;;;;;6.20;100.00;100966.41;5031063;28;20144;-77
2023/04/02 01:03:15;;;;;;;20.88;8.57;;;;;;;6.20;100.00;100982.44;5021569;28;20084;-77
2023/04/02 01:05:43;;;;;;;21.77;10.50;;;;;;;6.17;100.00;100992.41;5035249;28;20025;-76
2023/04/02 01:08:20;;;;;;;21.38;9.43;;;;;;;6.18;100.00;100988.78;5043062;28;20311;-77
2023/04/02 01:11:16;;;;;;;20.48;9.00;;;;;;;6.18;100.00;100992.34;5044524;28;20041;-77
2023/04/02 01:13:56;;;;;;;21.52;9.70;;;;;;;6.16;100.00;100994.19;5030581;28;20037;-77
2023/04/02 01:16:45;;;;;;;21.50;9.45;;;;;;;6.18;100.00;101000.34;5019691;28;20037;-77
2023/04/02 01:19:35;;;;;;;22.30;9.75;;;;;;;6.16;100.00;100999.53;5030548;28;20018;-77
2023/04/02 01:22:08;;;;;;;21.70;9.20;;;;;;;6.12;100.00;101006.84;5033982;28;20332;-76
2023/04/02 01:24:36;;;;;;;22.05;9.57;;;;;;;6.09;100.00;101008.81;5032425;28;20080;-77
2023/04/02 01:27:05;;;;;;;21.02;9.80;;;;;;;6.05;100.00;101016.13;5041693;28;20488;-77
2023/04/02 01:29:44;;;;;;;19.60;8.85;;;;;;;6.04;100.00;101013.53;5041951;28;20029;-77
2023/04/02 01:32:13;;;;;;;22.93;10.40;;;;;;;6.05;100.00;101025.94;5039443;28;20405;-77
2023/04/02 01:34:39;;;;;;;22.25;9.65;;;;;;;6.03;100.00;101020.69;5038976;28;20118;-77
2023/04/02 01:37:43;;;;;;;20.23;9.32;;;;;;;6.05;100.00;101029.47;5042270;28;20095;-77
2023/04/02 01:40:34;;;;;;;21.40;9.77;;;;;;;6.04;100.00;101037.53;5039243;28;20481;-77
2023/04/02 01:43:09;;;;;;;20.80;9.60;;;;;;;6.03;100.00;101039.38;5028348;28;20045;-77
2023/04/02 01:45:35;;;;;;;21.77;10.75;;;;;;;6.02;100.00;101050.09;5045088;28;20032;-77
2023/04/02 01:48:05;;;;;;;21.85;10.02;;;;;;;5.96;100.00;101045.91;5038261;28;20026;-76
2023/04/02 01:50:38;;;;;;;21.50;10.23;;;;;;;5.91;100.00;101054.13;5034204;28;20028;-77
2023/04/02 01:53:07;;;;;;;22.45;10.52;;;;;;;5.87;100.00;101057.03;5042820;28;20037;-77
2023/04/02 01:55:58;;;;;;;23.52;11.85;;;;;;;5.89;100.00;101060.50;5039844;28;20025;-77
2023/04/02 01:58:26;;;;;;;23.75;10.43;;;;;;;5.87;100.00;101065.03;5029095;28;20494;-77
2023/04/02 02:00:58;;;;;;;22.23;10.05;;;;;;;5.86;100.00;101063.34;5033524;28;20045;-77
2023/04/02 02:03:24;;;;;;;21.90;10.18;;;;;;;5.84;100.00;101066.06;5034191;28;20021;-77
2023/04/02 02:05:50;;;;;;;21.08;9.98;;;;;;;5.81;100.00;101073.34;5040557;28;20025;-77
2023/04/02 02:08:38;;;;;;;21.25;9.68;;;;;;;5.84;100.00;101078.53;5021645;28;20029;-76
2023/04/02 02:11:05;;;;;;;21.85;9.38;;;;;;;5.78;100.00;101085.03;5039987;28;20098;-76
2023/04/02 02:13:31;;;;;;;19.42;9.20;;;;;;;5.75;100.00;101083.41;5038367;28;20033;-76
2023/04/02 02:16:02;;;;;;;19.90;8.48;;;;;;;5.75;100.00;101098.50;5035800;28;20028;-77
2023/04/02 02:18:27;;;;;;;20.40;7.88;;;;;;;5.74;100.00;101094.13;5032551;28;20026;-77
2023/04/02 02:20:56;;;;;;;16.33;6.95;;;;;;;5.73;100.00;101101.25;5036630;28;20459;-77
2023/04/02 02:23:22;;;;;;;18.17;7.30;;;;;;;5.73;100.00;101101.25;5033060;28;20455;-76
2023/04/02 02:25:48;;;;;;;17.50;7.10;;;;;;;5.71;100.00;101120.94;5032650;28;20093;-76
2023/04/02 02:28:34;;;;;;;17.88;6.75;;;;;;;5.75;100.00;101120.75;5043828;28;20025;-76
2023/04/02 02:31:03;;;;;;;20.52;7.32;;;;;;;5.73;100.00;101127.06;5027821;28;20052;-77
2023/04/02 02:33:35;;;;;;;16.58;6.78;;;;;;;5.72;100.00;101131.53;5037944;28;20049;-77
2023/04/02 02:36:06;;;;;;;16.42;6.13;;;;;;;5.66;100.00;101131.81;5037125;28;20028;-77
2023/04/02 02:38:34;;;;;;;16.88;6.18;;;;;;;5.64;100.00;101135.50;5033066;28;20119;-76
2023/04/02 02:41:06;;;;;;;19.80;5.90;;;;;;;5.62;100.00;101151.56;5020515;28;20068;-76
2023/04/02 02:43:33;;;;;;;16.58;6.40;;;;;;;5.62;100.00;101142.72;5039418;28;20025;-76
2023/04/02 02:46:03;;;;;;;16.17;5.93;;;;;;;5.64;100.00;101154.16;5041000;28;20392;-77
2023/04/02 02:48:36;;;;;;;17.92;6.00;;;;;;;5.67;100.00;101160.22;5037714;28;20029;-77
2023/04/02 02:51:08;;;;;;;16.77;6.30;;;;;;;5.66;100.00;101160.31;5034347;28;20048;-76
2023/04/02 02:53:45;;;;;;;18.23;5.85;;;;;;;5.66;100.00;101173.66;5023642;28;20047;-77
2023/04/02 02:56:11;;;;;;;15.93;5.45;;;;;;;5.60;100.00;101178.31;5041996;28;20039;-76
2023/04/02 02:58:37;;;;;;;17.33;5.72;;;;;;;5.58;100.00;101176.69;5023477;28;20018;-76
2023/04/02 03:01:03;;;;;;;17.17;5.88;;;;;;;5.60;100.00;101180.97;5038341;28;20473;-76
2023/04/02 03:03:32;;;;;;;17.33;6.05;;;;;;;5.57;100.00;101178.47;5035966;28;20027;-76
2023/04/02 03:06:07;;;;;;;15.38;5.38;;;;;;;5.60;100.00;101186.31;5034981;28;20021;-76
2023/04/02 03:08:40;;;;;;;18.95;7.53;;;;;;;5.57;100.00;101189.13;5026438;28;20026;-76
2023/04/02 03:11:18;;;;;;;20.55;8.02;;;;;;;5.57;100.00;101189.13;5024557;28;20199;-76
2023/04/02 03:13:48;;;;;;;20.67;7.88;;;;;;;5.56;100.00;101192.75;5037014;28;20029;-76
2023/04/02 03:16:19;;;;;;;20.50;7.95;;;;;;;5.55;100.00;101203.47;5022428;28;20397;-76
2023/04/02 03:19:28;;;;;;;24.48;8.82;;;;;;;5.57;100.00;101205.13;5036897;28;20105;-77
2023/04/02 03:21:53;;;;;;;20.90;8.52;;;;;;;5.54;100.00;101221.28;5035237;28;20127;-77
2023/04/02 03:24:28;;;;;;;21.88;9.73;;;;;;;5.53;100.00;101226.66;5042127;28;20163;-76
2023/04/02 03:27:15;;;;;;;20.80;9.18;;;;;;;5.51;100.00;101236.56;5030637;28;20036;-77
2023/04/02 03:29:45;;;;;;;20.50;8.82;;;;;;;5.42;100.00;101244.03;5024872;28;20040;-76
2023/04/02 03:32:24;;;;;;;20.40;8.52;;;;;;;5.39;100.00;101243.31;5042007;28;20028;-76
2023/04/02 03:34:56;;;;;;;24.73;10.17;;;;;;;5.39;100.00;101252.16;5036372;28;20048;-76
2023/04/02 03:37:29;;;;;;;22.05;8.82;;;;;;;5.38;100.00;101249.56;5032626;28;20040;-76
2023/04/02 03:40:14;;;;;;;21.33;9.18;;;;;;;5.35;100.00;101255.91;5032802;28;20476;-76
2023/04/02 03:43:11;;;;;;;21.80;9.15;;;;;;;5.36;100.00;101262.06;5040080;28;20029;-76
2023/04/02 03:45:40;;;;;;;21.05;8.60;;;;;;;5.30;100.00;101273.03;5031139;28;20025;-76
2023/04/02 03:48:08;;;;;;;20.58;8.85;;;;;;;5.26;100.00;101277.63;5038918;28;20059;-76
2023/04/02 03:50:39;;;;;;;19.70;8.15;;;;;;;5.18;100.00;101283.31;5033417;28;20064;-76
2023/04/02 03:53:04;;;;;;;21.55;8.32;;;;;;;5.16;100.00;101289.63;5027358;28;20040;-76
2023/04/02 03:55:34;;;;;;;20.55;8.10;;;;;;;5.12;100.00;101294.22;5026497;28;20109;-76
2023/04/02 03:58:16;;;;;;;19.35;8.45;;;;;;;5.11;100.00;101300.50;5021224;28;20026;-76
2023/04/02 04:01:21;;;;;;;18.88;7.72;;;;;;;5.11;100.00;101308.50;5028913;28;20466;-76
2023/04/02 04:03:54;;;;;;;19.45;8.25;;;;;;;5.04;100.00;101309.69;5028646;28;20026;-76
2023/04/02 04:06:26;;;;;;;19.13;7.22;;;;;;;5.00;100.00;101316.06;5018998;28;20087;-76
2023/04/02 04:09:00;;;;;;;20.25;8.15;;;;;;;5.01;100.00;101316.00;5014982;28;20022;-76
2023/04/02 04:11:35;;;;;;;20.38;8.27;;;;;;;4.99;100.00;101325.88;5032306;28;20390;-76
2023/04/02 04:14:16;;;;;;;21.23;8.50;;;;;;;5.00;100.00;101334.72;5031740;28;20096;-77
2023/04/02 04:16:48;;;;;;;21.00;8.57;;;;;;;4.97;100.00;101334.84;5024819;28;20105;-76
2023/04/02 04:19:23;;;;;;;20.17;8.93;;;;;;;4.99;100.00;101351.63;5036331;28;20028;-76
2023/04/02 04:21:52;;;;;;;22.45;9.50;;;;;;;5.01;100.00;101352.44;5032199;28;20370;-76
2023/04/02 04:24:27;;;;;;;21.48;9.85;;;;;;;5.06;100.00;101350.44;5038080;28;20087;-76
2023/04/02 04:27:03;;;;;;;20.20;9.23;;;;;;;5.08;100.00;101351.22;5025345;28;20029;-76
2023/04/02 04:29:44;;;;;;;21.48;9.93;;;;;;;5.08;100.00;101365.44;5041817;28;20033;-76
2023/04/02 04:32:32;;;;;;;20.75;9.05;;;;;;;5.12;100.00;101378.63;5042075;28;20039;-76
2023/04/02 04:35:05;;;;;;;21.63;9.68;;;;;;;5.07;100.00;101384.16;5030709;28;20040;-76
2023/04/02 04:37:35;;;;;;;21.48;8.98;;;;;;;5.06;100.00;101395.72;5028285;28;20025;-76
2023/04/02 04:40:16;;;;;;;21.67;9.23;;;;;;;5.06;100.00;101395.72;5028652;28;20041;-76
2023/04/02 04:42:43;;;;;;;21.80;9.93;;;;;;;5.06;100.00;101398.38;5044060;28;20384;-76
2023/04/02 04:45:11;;;;;;;21.95;8.63;;;;;;;5.05;100.00;101402.84;5043314;28;20035;-77
2023/04/02 04:48:01;;;;;;;21.20;8.52;;;;;;;5.05;100.00;101421.50;5035601;28;20060;-76
2023/04/02 04:50:32;;;;;;;;;;;;;;;5.08;100.00;101415.16;5037703;28;20022;-76
2023/04/02 04:53:05;;;;;;;20.08;8.20;;;;;;;4.99;100.00;101424.44;5041364;28;19917;-76
2023/04/02 04:55:39;;;;;;;18.67;7.25;;;;;;;4.96;100.00;101431.66;5030148;28;20028;-77
2023/04/02 04:58:28;;;;;;;20.20;8.07;;;;;;;4.92;100.00;101430.03;5025267;28;20341;-76
2023/04/02 05:01:14;;;;;;;19.25;7.75;;;;;;;4.86;100.00;101442.69;5036486;28;20036;-77
2023/04/02 05:04:04;;;;;;;17.30;7.50;;;;;;;4.81;100.00;101439.34;5042778;28;20032;-76
2023/04/02 05:06:30;;;;;;;18.33;7.05;;;;;;;4.78;100.00;101450.09;5033694;28;20025;-76
2023/04/02 05:09:00;;;;;;;20.55;7.15;;;;;;;4.77;100.00;101458.16;5038358;28;20460;-76
2023/04/02 05:11:34;;;;;;;;;;;;;;;4.80;100.00;101464.25;5037615;28;20392;-76
2023/04/02 05:14:05;;;;;;;19.65;7.38;;;;;;;4.71;100.00;101465.47;5024140;28;19913;-76
2023/04/02 05:16:45;;;;;;;18.50;6.50;;;;;;;4.71;100.00;101468.13;5043607;28;20057;-76
2023/04/02 05:19:24;;;;;;;20.48;8.13;;;;;;;4.71;100.00;101477.91;5032091;28;20029;-77
2023/04/02 05:21:56;;;;;;;20.05;7.53;;;;;;;4.68;100.00;101475.38;5038008;28;20048;-77
2023/04/02 05:24:24;;;;;;;21.92;7.53;;;;;;;4.64;100.00;101484.38;5039271;28;20449;-76
2023/04/02 05:26:52;;;;;;;18.05;6.75;;;;;;;4.58;100.00;101480.16;5025370;28;20028;-77
2023/04/02 05:29:30;;;;;;;19.33;7.55;;;;;;;4.59;100.00;101487.22;5038584;28;20068;-77
2023/04/02 05:32:12;;;;;;;17.65;7.15;;;;;;;4.57;100.00;101485.53;5042798;28;20123;-76
2023/04/02 05:34:41;;;;;;;19.15;7.47;;;;;;;4.54;100.00;101491.88;5038687;28;20029;-76
2023/04/02 05:37:16;;;;;;;21.30;7.82;;;;;;;4.55;100.00;101499.81;5037501;28;20037;-76
2023/04/02 05:39:44;;;;;;;21.17;8.25;;;;;;;4.54;100.00;101508.72;5041101;28;20042;-76
2023/04/02 05:42:22;;;;;;;19.92;7.10;;;;;;;4.53;100.00;101501.63;5034408;28;20036;-76
2023/04/02 05:44:57;;;;;;;18.42;6.75;;;;;;;4.53;100.00;101509.63;5037246;28;20396;-76
2023/04/02 05:47:27;;;;;;;18.55;6.80;;;;;;;4.53;100.00;101520.28;5036570;28;20104;-76
2023/04/02 05:50:11;;;;;;;19.70;7.15;;;;;;;4.55;100.00;101514.88;5042347;28;20061;-77
2023/04/02 05:52:44;;;;;;;21.42;7.70;;;;;;;4.55;100.00;101521.09;5041778;28;20111;-76
2023/04/02 05:55:12;;;;;;;19.80;7.53;;;;;;;4.54;100.00;101532.66;5035804;28;20442;-77
2023/04/02 05:57:42;;;;;;;20.52;6.88;;;;;;;4.57;100.00;101533.47;5037628;28;20041;-76
2023/04/02 06:00:16;;;;;;;21.88;8.05;;;;;;;4.57;100.00;101552.09;5026879;28;20025;-76
2023/04/02 06:02:59;;;;;;;21.20;7.88;;;;;;;4.58;100.00;101556.50;5041223;28;20032;-76
2023/04/02 06:05:31;;;;;;;22.17;8.52;;;;;;;4.60;100.00;101557.31;5023401;28;20048;-76
2023/04/02 06:08:19;;;;;;;19.08;7.53;;;;;;;4.61;100.00;101553.72;5035089;28;20029;-76
2023/04/02 06:10:55;;;;;;;23.00;9.27;;;;;;;4.64;100.00;101567.81;5037151;28;20125;-76
2023/04/02 06:13:21;;;;;;;19.27;8.32;;;;;;;4.64;100.00;101573.13;5029029;28;20051;-76
2023/04/02 06:15:47;;;;;;;22.25;8.60;;;;;;;4.65;100.00;101576.66;5037307;28;20030;-76
2023/04/02 06:18:24;;;;;;;22.38;9.60;;;;;;;4.66;100.00;101586.41;5032657;28;20050;-76
2023/04/02 06:20:50;;;;;;;20.70;9.27;;;;;;;4.60;100.00;101592.81;5042213;28;20063;-76
2023/04/02 06:23:29;;;;;;;20.60;9.35;;;;;;;4.59;100.00;101588.41;5030546;28;20033;-76
2023/04/02 06:26:21;;;;;;;18.75;8.38;;;;;;;4.59;100.00;101595.53;5028389;28;20030;-76
2023/04/02 06:28:53;;;;;;;20.27;8.45;;;;;;;4.53;100.00;101602.78;5034578;28;20037;-76
2023/04/02 06:31:46;;;;;;;20.35;9.13;;;;;;;4.53;100.00;101604.59;5033510;28;20022;-76
2023/04/02 06:34:17;;;;;;;21.30;9.00;;;;;;;4.47;98.22;101616.34;5040304;28;20071;-76
2023/04/02 06:36:44;;;;;;;22.08;8.68;;;;;;;4.44;98.22;101621.75;5030539;28;20025;-77
2023/04/02 06:39:24;;;;;;;22.70;9.20;;;;;;;4.43;97.51;101636.00;5032199;28;20449;-76
2023/04/02 06:42:00;;;;;;;20.17;8.60;;;;;;;4.41;97.67;101637.84;5042430;28;20025;-76
2023/04/02 06:44:30;;;;;;;20.25;8.13;;;;;;;4.41;97.91;101643.16;5028014;28;20033;-76
2023/04/02 06:46:58;;;;;;;;;;;;;;;4.47;98.19;101648.28;5038411;28;20039;-77
2023/04/02 06:49:39;;;;;;;23.05;8.15;;;;;;;4.44;98.04;101647.53;5027129;28;19921;-76
2023/04/02 06:52:14;;;;;;;20.77;8.27;;;;;;;4.44;97.32;101659.03;5014719;28;20025;-76
2023/04/02 06:54:39;;;;;;;22.75;8.35;;;;;;;4.43;97.27;101664.41;5021100;28;20029;-76
2023/04/02 06:57:06;;;;;;;19.00;7.15;;;;;;;4.40;95.04;101672.50;5024587;28;20052;-76
2023/04/02 06:59:31;;;;;;;19.30;7.30;;;;;;;4.40;95.83;101672.50;5022569;28;20018;-76
2023/04/02 07:01:59;;;;;;;25.23;7.53;;;;;;;4.45;96.06;101678.53;5038224;28;20032;-76
2023/04/02 07:04:25;;;;;;;19.05;6.63;;;;;;;4.48;95.03;101684.63;5042754;28;20103;-76
2023/04/02 07:06:50;;;;;;;18.60;7.32;;;;;;;4.53;93.80;101695.97;5036889;28;20430;-76
2023/04/02 07:09:16;;;;;;;21.25;7.22;;;;;;;4.59;95.04;101699.34;5038275;28;20065;-76
2023/04/02 07:11:41;;;;;;;18.15;6.93;;;;;;;4.62;94.60;101709.91;5035057;28;20029;-76
2023/04/02 07:14:11;;;;;;;20.77;6.85;;;;;;;4.60;93.02;101719.72;5032433;28;20024;-76
2023/04/02 07:16:36;;;;;;;17.45;5.85;;;;;;;4.62;93.90;101728.53;5032516;28;20083;-76
2023/04/02 07:19:03;;;;;;;17.85;5.57;;;;;;;4.61;92.77;101722.34;5027892;28;20037;-76
2023/04/02 07:21:29;;;;;;;15.07;5.32;;;;;;;4.55;91.02;101731.41;5021473;28;20148;-76
2023/04/02 07:23:54;;;;;;;18.63;5.78;;;;;;;4.57;93.34;101738.44;5038552;28;20021;-76
2023/04/02 07:26:26;;;;;;;18.27;6.07;;;;;;;4.55;91.57;101751.81;5042375;28;20025;-76
2023/04/02 07:28:53;;;;;;;14.68;5.05;;;;;;;4.53;92.10;101749.22;5035942;28;20033;-76
2023/04/02 07:31:22;;;;;;;17.83;5.25;;;;;;;4.50;91.89;101759.97;5022474;28;20091;-76
2023/04/02 07:33:47;;;;;;;15.73;5.13;;;;;;;4.44;90.16;101768.16;5024677;28;20029;-76
2023/04/02 07:36:15;;;;;;;16.20;5.00;;;;;;;4.36;90.07;101768.41;5024348;28;20208;-76
2023/04/02 07:38:41;;;;;;;15.75;5.50;;;;;;;4.27;91.20;101779.34;5017001;28;20067;-76
2023/04/02 07:41:07;;;;;;;14.95;4.40;;;;;;;4.24;90.30;101778.59;5031906;28;20135;-76
2023/04/02 07:43:34;;;;;;;16.15;5.00;;;;;;;4.16;89.89;101779.69;5037553;28;20535;-76
2023/04/02 07:45:59;;;;;;;15.27;4.47;;;;;;;4.16;91.74;101778.84;5035145;28;20039;-76
2023/04/02 07:48:25;;;;;;;15.85;4.88;;;;;;;4.17;91.73;101778.78;5035754;28;20463;-76
2023/04/02 07:50:50;;;;;;;12.80;4.47;;;;;;;4.18;91.35;101776.97;5039314;28;20086;-76
2023/04/02 07:53:28;;;;;;;14.20;4.82;;;;;;;4.22;91.71;101781.28;5034867;28;20036;-76
2023/04/02 07:55:55;;;;;;;14.13;4.80;;;;;;;4.26;91.69;101784.72;5032227;28;20360;-76
2023/04/02 07:58:20;;;;;;;20.30;5.18;;;;;;;4.30;90.08;101797.00;5029964;28;20021;-76
2023/04/02 08:00:45;;;;;;;15.38;4.85;;;;;;;4.33;90.56;101794.25;5029453;28;20028;-76
2023/04/02 08:03:12;;;;;;;15.77;4.65;;;;;;;4.39;90.81;101799.38;5038035;28;20017;-76
2023/04/02 08:05:37;;;;;;;16.45;5.03;;;;;;;4.46;89.94;101810.69;5037910;28;20112;-76
2023/04/02 08:08:03;;;;;;;13.98;3.85;;;;;;;4.45;88.64;101814.28;5031343;28;20125;-76
2023/04/02 08:10:28;;;;;;;11.40;4.18;;;;;;;4.43;88.96;101814.31;5031611;28;20048;-76
2023/04/02 08:12:53;;;;;;;14.00;4.45;;;;;;;4.46;89.48;101821.34;5025278;28;20026;-76
2023/04/02 08:15:19;;;;;;;15.85;4.60;;;;;;;4.46;88.45;101816.88;5025011;28;20029;-76
2023/04/02 08:17:44;;;;;;;13.77;3.92;;;;;;;4.42;87.89;101825.88;5026526;28;20183;-76
2023/04/02 08:20:16;;;;;;;15.68;4.25;;;;;;;4.42;88.32;101825.03;5039466;28;20384;-76
2023/04/02 08:22:42;;;;;;;12.90;4.18;;;;;;;4.46;90.16;101829.34;5033729;28;20049;-76
2023/04/02 08:25:08;;;;;;;15.75;4.22;;;;;;;4.49;89.15;101837.22;5023822;28;20390;-76
2023/04/02 08:27:34;;;;;;;11.15;3.65;;;;;;;4.52;89.05;101847.75;5041869;28;20029;-76
2023/04/02 08:29:59;;;;;;;17.15;3.83;;;;;;;4.53;87.55;101847.72;5040470;28;20036;-76
2023/04/02 08:32:27;;;;;;;14.32;4.22;;;;;;;4.61;89.64;101858.13;5042232;28;20028;-76
2023/04/02 08:34:53;;;;;;;11.77;4.00;;;;;;;4.66;88.07;101865.97;5040196;28;20087;-76
2023/04/02 08:37:18;;;;;;;15.27;4.10;;;;;;;4.67;87.87;101873.91;5039477;28;20037;-76
2023/04/02 08:39:43;;;;;;;13.40;4.00;;;;;;;4.70;86.61;101881.78;5044312;28;20459;-76
2023/04/02 08:42:35;;;;;;;13.50;3.97;;;;;;;4.68;87.57;101880.09;5044587;28;20384;-76
2023/04/02 08:45:21;;;;;;;11.27;3.85;;;;;;;4.67;87.30;101889.00;5035670;28;20017;-76
2023/04/02 08:47:47;;;;;;;11.18;3.78;;;;;;;4.71;89.81;101887.97;5044761;28;20033;-76
2023/04/02 08:50:34;;;;;;;10.98;3.63;;;;;;;4.78;89.83;101897.53;5037795;28;20026;-76
2023/04/02 08:53:03;;;;;;;11.90;3.65;;;;;;;4.77;88.92;101894.91;5024872;28;20037;-76
2023/04/02 08:56:02;;;;;;;12.55;3.75;;;;;;;4.77;86.13;101900.25;5037341;28;20044;-76
2023/04/02 08:58:47;;;;;;;13.02;3.65;;;;;;;4.76;87.68;101914.47;5032035;28;20045;-76
2023/04/02 09:01:20;;;;;;;11.73;3.85;;;;;;;4.76;87.56;101922.44;5030409;28;20020;-76
2023/04/02 09:03:48;;;;;;;11.35;3.67;;;;;;;4.76;86.66;101931.34;5045944;28;20119;-76
2023/04/02 09:06:17;;;;;;;11.95;3.55;;;;;;;4.77;87.58;101935.72;5035992;28;20020;-76
2023/04/02 09:08:45;;;;;;;15.73;4.00;;;;;;;4.80;87.84;101938.31;5034876;28;20022;-76
2023/04/02 09:11:16;;;;;;;10.13;3.40;;;;;;;4.83;87.16;101938.22;5043033;28;20037;-76
2023/04/02 09:13:46;;;;;;;11.27;3.28;;;;;;;4.80;86.60;101945.41;5035592;28;20044;-76
2023/04/02 09:16:13;;;;;;;;;;;;;;;4.88;87.99;101952.25;5033625;28;20026;-76
2023/04/02 09:18:40;;;;;;;12.30;3.50;;;;;;;4.85;86.18;101946.16;5041567;28;19924;-76
2023/04/02 09:21:34;;;;;;;12.35;3.55;;;;;;;4.93;86.99;101954.75;5043851;28;20063;-76
2023/04/02 09:23:59;;;;;;;9.75;3.38;;;;;;;5.00;86.03;101950.97;5035139;28;20097;-76
2023/04/02 09:26:27;;;;;;;14.75;3.53;;;;;;;5.00;84.70;101971.44;5043560;28;20037;-76
2023/04/02 09:29:14;;;;;;;11.32;3.25;;;;;;;4.98;84.68;101975.91;5043882;28;20082;-76
2023/04/02 09:31:44;;;;;;;12.73;3.65;;;;;;;4.99;85.03;101980.34;5032959;28;20065;-76
2023/04/02 09:34:33;;;;;;;13.48;3.38;;;;;;;5.00;85.58;101979.41;5038731;28;20033;-76
2023/04/02 09:37:17;;;;;;;11.73;3.53;;;;;;;5.02;85.25;101991.78;5033882;28;20032;-76
2023/04/02 09:39:43;;;;;;;10.80;3.03;;;;;;;5.01;84.64;101992.69;5026738;28;20028;-76
2023/04/02 09:42:35;;;;;;;10.07;3.15;;;;;;;5.08;86.93;101985.34;5033817;28;20029;-76
2023/04/02 09:45:21;;;;;;;8.80;3.33;;;;;;;5.08;84.85;101991.56;5018837;28;20018;-76
2023/04/02 09:47:48;;;;;;;15.55;4.28;;;;;;;5.08;86.57;101994.25;5043727;28;20024;-76
2023/04/02 09:50:19;;;;;;;13.75;3.72;;;;;;;5.09;86.30;101997.78;5035463;28;20168;-76
2023/04/02 09:52:45;;;;;;;11.52;3.65;;;;;;;5.10;87.00;102002.19;5041394;28;20056;-76
2023/04/02 09:55:17;;;;;;;11.02;3.72;;;;;;;5.08;84.67;102012.00;5038484;28;20052;-76
2023/04/02 09:57:42;;;;;;;14.55;4.50;;;;;;;5.07;85.56;102016.47;5046332;28;20100;-76
2023/04/02 10:00:30;;;;;;;10.70;3.60;;;;;;;5.05;85.50;102025.44;5038862;28;20013;-76
2023/04/02 10:03:27;;;;;;;15.75;3.85;;;;;;;5.07;86.22;102027.13;5035365;28;20041;-76
2023/04/02 10:06:09;;;;;;;12.98;4.13;;;;;;;5.05;86.02;102034.31;5037968;28;20559;-76
2023/04/02 10:08:36;;;;;;;11.18;3.47;;;;;;;5.01;86.28;102039.78;5039771;28;20040;-76
2023/04/02 10:11:07;;;;;;;19.15;4.07;;;;;;;5.03;86.72;102035.28;5039913;28;20022;-76
2023/04/02 10:13:52;;;;;;;15.40;4.03;;;;;;;5.03;87.05;102043.25;5049187;28;20473;-76
2023/04/02 10:16:32;;;;;;;12.93;3.85;;;;;;;5.05;86.81;102036.97;5040785;28;20025;-76
2023/04/02 10:19:26;;;;;;;11.13;3.75;;;;;;;5.07;86.41;102042.25;5037121;28;20018;-76
2023/04/02 10:21:54;;;;;;;12.55;4.05;;;;;;;5.05;85.23;102054.75;5025527;28;20073;-76
2023/04/02 10:24:19;;;;;;;11.65;3.78;;;;;;;5.00;85.11;102054.03;5025141;28;20369;-76
2023/04/02 10:27:04;;;;;;;14.25;4.05;;;;;;;5.04;86.64;102063.69;5027558;28;20053;-76
2023/04/02 10:29:48;;;;;;;12.32;3.63;;;;;;;5.08;86.04;102065.28;5037733;28;20131;-76
2023/04/02 10:32:40;;;;;;;8.93;2.85;;;;;;;5.19;87.71;102071.19;5032209;28;20038;-76
2023/04/02 10:35:20;;;;;;;11.68;3.42;;;;;;;5.16;85.48;102073.94;5020280;28;20362;-76
2023/04/02 10:37:48;;;;;;;15.40;4.00;;;;;;;5.12;84.75;102077.63;5036031;28;20052;-75
2023/04/02 10:40:35;;;;;;;12.43;3.90;;;;;;;5.15;85.63;102092.66;5034222;28;20026;-75
2023/04/02 10:43:19;;;;;;;14.50;3.90;;;;;;;5.19;85.82;102081.84;5044126;28;20039;-75
2023/04/02 10:46:22;;;;;;;10.77;3.47;;;;;;;5.22;85.91;102095.06;5044276;28;20029;-75
2023/04/02 10:48:55;;;;;;;10.07;3.35;;;;;;;5.24;84.21;102095.91;5050786;28;20037;-75
2023/04/02 10:51:33;;;;;;;13.02;3.85;;;;;;;5.19;84.36;102103.16;5047154;28;20036;-75
2023/04/02 10:54:37;;;;;;;9.32;3.33;;;;;;;5.21;84.46;102096.00;5035914;28;20025;-75
2023/04/02 10:57:30;;;;;;;13.48;3.92;;;;;;;5.27;84.72;102104.72;5042727;28;20028;-75
2023/04/02 11:00:14;;;;;;;11.98;3.67;;;;;;;5.34;86.03;102095.63;5047917;28;20161;-75
2023/04/02 11:03:17;;;;;;;10.82;3.97;;;;;;;5.49;84.67;102102.25;5040213;28;20037;-75
2023/04/02 11:05:48;;;;;;;9.82;3.22;;;;;;;5.50;82.50;102118.19;5038830;28;20156;-75
2023/04/02 11:08:39;;;;;;;14.48;3.95;;;;;;;5.57;83.75;102114.41;5047273;28;20024;-75
2023/04/02 11:11:12;;;;;;;12.23;3.90;;;;;;;5.57;83.16;102122.41;5048039;28;20064;-75
2023/04/02 11:13:55;;;;;;;11.27;3.40;;;;;;;5.65;84.01;102126.63;5047944;28;20131;-75
2023/04/02 11:16:21;;;;;;;13.02;3.88;;;;;;;5.71;83.75;102131.75;5039500;28;20025;-75
2023/04/02 11:19:15;;;;;;;13.73;3.83;;;;;;;5.80;83.54;102130.59;5044575;28;20030;-75
2023/04/02 11:21:54;;;;;;;10.63;3.65;;;;;;;5.82;80.16;102145.63;5037751;28;20327;-75
2023/04/02 11:24:30;;;;;;;14.05;3.58;;;;;;;5.85;80.50;102140.19;5038297;28;20025;-75
2023/04/02 11:27:11;;;;;;;13.05;4.28;;;;;;;5.88;81.37;102142.75;5043232;28;20040;-75
2023/04/02 11:29:50;;;;;;;11.15;3.78;;;;;;;5.93;81.58;102148.84;5033021;28;20102;-75
2023/04/02 11:32:26;;;;;;;11.77;3.72;;;;;;;5.98;80.94;102154.03;5053496;28;20024;-75
2023/04/02 11:34:52;;;;;;;10.85;3.75;;;;;;;6.00;80.18;102162.00;5045903;28;20131;-75
2023/04/02 11:37:43;;;;;;;12.80;3.70;;;;;;;6.04;82.06;102158.31;5045814;28;20044;-75
2023/04/02 11:40:15;;;;;;;10.85;3.80;;;;;;;6.03;81.49;102154.78;5039710;28;20352;-75
2023/04/02 11:42:44;;;;;;;15.50;4.10;;;;;;;6.06;82.66;102164.47;5027932;28;20358;-75
2023/04/02 11:45:18;;;;;;;10.98;3.63;;;;;;;6.14;81.72;102161.56;5045717;28;20115;-75
2023/04/02 11:48:15;;;;;;;14.25;3.92;;;;;;;6.21;81.09;102166.63;5047463;28;20044;-75
2023/04/02 11:50:43;;;;;;;9.93;3.60;;;;;;;6.21;77.94;102161.28;5029333;28;20109;-75
2023/04/02 11:53:12;;;;;;;12.18;4.00;;;;;;;6.27;80.92;102166.41;5030741;28;20091;-75
2023/04/02 11:55:40;;;;;;;11.88;4.20;;;;;;;6.32;79.83;102170.72;5026852;28;20060;-75